Time;durP1;ratioP1;P1;durP2;ratioP2;P2;SDS_P1;SDS_P2;PMS_P1;PMS_P2;Temp;Humidity;BMP_temperature;BMP_pressure;BME280_temperature;BME280_humidity;BME280_pressure;Samples;Min_cycle;Max_cycle;Signal;HPM_P1;HPM_P2
2023/12/03 00:00:46;;;;;;;61.58;22.05;;;;;;;-0.86;100.00;101620.91;4997827;28;20037;-73
2023/12/03 00:03:12;;;;;;;75.38;25.13;;;;;;;-0.90;100.00;101619.38;5015236;28;20064;-74
2023/12/03 00:05:39;;;;;;;69.50;23.38;;;;;;;-0.98;100.00;101616.28;5008665;28;20104;-74
2023/12/03 00:08:05;;;;;;;66.97;24.77;;;;;;;-0.98;100.00;101618.84;4990572;28;20042;-75
2023/12/03 00:10:31;;;;;;;65.55;24.73;;;;;;;-0.93;100.00;101623.75;5008706;28;20034;-74
2023/12/03 00:12:56;;;;;;;67.43;24.20;;;;;;;-0.96;100.00;101631.50;5007671;28;20029;-74
2023/12/03 00:15:22;;;;;;;74.63;24.52;;;;;;;-0.83;100.00;101620.78;5009469;28;20104;-74
2023/12/03 00:17:48;;;;;;;68.30;24.05;;;;;;;-0.92;100.00;101626.25;5007426;28;20080;-75
2023/12/03 00:20:14;;;;;;;70.15;24.73;;;;;;;-0.75;100.00;101624.72;5022179;28;20084;-74
2023/12/03 00:22:39;;;;;;;66.88;25.45;;;;;;;-0.91;100.00;101630.44;4993143;28;20030;-75
2023/12/03 00:25:06;;;;;;;72.93;25.80;;;;;;;-0.86;100.00;101625.19;5010685;28;20057;-75
2023/12/03 00:27:32;;;;;;;74.43;26.33;;;;;;;-0.82;100.00;101632.63;5003130;28;20120;-73
2023/12/03 00:29:57;;;;;;;68.85;25.10;;;;;;;-0.74;100.00;101632.31;5013639;28;20125;-75
2023/12/03 00:32:23;;;;;;;65.25;24.23;;;;;;;-0.70;100.00;101623.63;5022637;28;20031;-74
2023/12/03 00:34:48;;;;;;;64.43;24.55;;;;;;;-0.72;100.00;101616.97;5001626;28;20042;-74
2023/12/03 00:37:14;;;;;;;68.00;25.23;;;;;;;-0.63;100.00;101624.22;5005970;28;20030;-74
2023/12/03 00:39:39;;;;;;;68.45;24.92;;;;;;;-0.69;100.00;101620.22;5012085;28;20045;-74
2023/12/03 00:42:05;;;;;;;58.13;23.42;;;;;;;-0.72;100.00;101619.50;5015488;28;20030;-74
2023/12/03 00:44:30;;;;;;;72.75;25.00;;;;;;;-0.68;100.00;101614.25;5005550;28;20032;-74
2023/12/03 00:46:56;;;;;;;65.78;24.55;;;;;;;-0.76;100.00;101603.53;5004190;28;20057;-74
2023/12/03 00:49:21;;;;;;;69.45;25.63;;;;;;;-0.79;100.00;101603.66;5006289;28;20496;-74
2023/12/03 00:51:47;;;;;;;76.05;26.95;;;;;;;-0.68;100.00;101608.28;5009502;28;20038;-73
2023/12/03 00:54:12;;;;;;;66.30;25.88;;;;;;;-0.73;100.00;101611.06;5010118;28;20028;-74
2023/12/03 00:56:37;;;;;;;73.30;24.90;;;;;;;-0.77;100.00;101609.53;5007119;28;20037;-72
2023/12/03 00:59:03;;;;;;;63.95;25.02;;;;;;;-0.84;100.00;101615.75;5010036;28;20037;-72
2023/12/03 01:01:28;;;;;;;64.32;24.52;;;;;;;-0.89;100.00;101615.09;5005948;28;20034;-72
2023/12/03 01:03:54;;;;;;;74.80;25.00;;;;;;;-0.84;100.00;101625.94;5022482;28;20045;-72
2023/12/03 01:06:19;;;;;;;71.00;26.23;;;;;;;-0.65;100.00;101631.94;5012093;28;20045;-72
2023/12/03 01:08:45;;;;;;;74.07;24.90;;;;;;;-0.74;100.00;101634.03;5001599;28;20033;-72
2023/12/03 01:11:11;;;;;;;65.18;25.52;;;;;;;-0.82;100.00;101635.16;5011716;28;20044;-72
2023/12/03 01:13:36;;;;;;;59.33;22.40;;;;;;;-0.84;100.00;101636.94;5012656;28;20123;-72
2023/12/03 01:16:02;;;;;;;75.28;24.55;;;;;;;-0.74;100.00;101636.56;5011200;28;20052;-72
2023/12/03 01:18:28;;;;;;;67.47;24.77;;;;;;;-0.73;100.00;101639.06;4994587;28;20045;-71
2023/12/03 01:20:53;;;;;;;64.10;23.35;;;;;;;-0.69;100.00;101645.69;4998729;28;20065;-71
2023/12/03 01:23:18;;;;;;;69.32;25.20;;;;;;;-0.62;100.00;101649.66;5011952;28;20075;-72
2023/12/03 01:25:44;;;;;;;62.28;23.55;;;;;;;-0.63;100.00;101649.72;5020807;28;20042;-72
2023/12/03 01:28:09;;;;;;;68.28;24.92;;;;;;;-0.69;100.00;101647.41;5012347;28;20042;-72
2023/12/03 01:30:35;;;;;;;66.65;24.92;;;;;;;-0.72;100.00;101657.72;5016900;28;20040;-72
2023/12/03 01:33:02;;;;;;;65.25;24.30;;;;;;;-0.70;100.00;101661.84;5017681;28;20039;-72
2023/12/03 01:35:28;;;;;;;68.70;24.63;;;;;;;-0.72;100.00;101661.09;5013883;28;20034;-72
2023/12/03 01:37:53;;;;;;;63.55;23.80;;;;;;;-0.73;100.00;101668.81;5010364;28;20493;-72
2023/12/03 01:40:18;;;;;;;64.20;23.55;;;;;;;-0.78;100.00;101668.97;5028889;28;20405;-72
2023/12/03 01:42:45;;;;;;;67.57;23.75;;;;;;;-0.83;100.00;101671.72;5017277;28;20033;-72
2023/12/03 01:45:10;;;;;;;60.50;22.75;;;;;;;-0.79;100.00;101674.97;5011068;28;20184;-72
2023/12/03 01:47:36;;;;;;;65.75;24.67;;;;;;;-0.82;100.00;101681.00;5020918;28;20562;-72
2023/12/03 01:50:06;;;;;;;60.17;23.83;;;;;;;-0.74;100.00;101680.69;5012045;28;20053;-71
2023/12/03 01:52:33;;;;;;;64.90;23.42;;;;;;;-0.72;100.00;101681.47;5007737;28;20045;-72
2023/12/03 01:55:00;;;;;;;60.28;23.23;;;;;;;-0.79;100.00;101682.63;5011621;28;20046;-72
2023/12/03 01:57:27;;;;;;;59.92;23.50;;;;;;;-0.80;100.00;101675.84;4995337;28;20100;-72
2023/12/03 01:59:52;;;;;;;61.20;24.23;;;;;;;-0.69;100.00;101673.72;5015986;28;20140;-72
2023/12/03 02:02:18;;;;;;;56.67;21.27;;;;;;;-0.78;100.00;101679.16;5012734;28;20056;-72
2023/12/03 02:04:43;;;;;;;55.70;22.85;;;;;;;-0.85;100.00;101687.94;5021061;28;20041;-72
2023/12/03 02:07:08;;;;;;;64.28;23.92;;;;;;;-0.87;100.00;101685.44;5014097;28;20041;-71
2023/12/03 02:09:34;;;;;;;61.75;22.00;;;;;;;-0.85;100.00;101677.75;5013990;28;20034;-72
2023/12/03 02:12:00;;;;;;;52.28;20.85;;;;;;;-0.91;100.00;101678.81;5010324;28;20042;-72
2023/12/03 02:14:25;;;;;;;53.97;22.80;;;;;;;-1.00;100.00;101682.56;5014920;28;20061;-72
2023/12/03 02:16:51;;;;;;;61.22;22.08;;;;;;;-0.99;100.00;101681.66;5014264;28;20096;-72
2023/12/03 02:19:16;;;;;;;48.22;20.48;;;;;;;-0.97;100.00;101681.63;5017483;28;20060;-72
2023/12/03 02:21:42;;;;;;;59.05;22.27;;;;;;;-1.01;100.00;101675.00;5010592;28;20642;-72
2023/12/03 02:24:08;;;;;;;59.80;22.50;;;;;;;-1.07;100.00;101688.78;5010763;28;20060;-72
2023/12/03 02:26:34;;;;;;;54.47;21.25;;;;;;;-1.11;100.00;101691.50;5010768;28;20092;-72
2023/12/03 02:29:00;;;;;;;54.65;21.33;;;;;;;-1.12;100.00;101685.59;5015435;28;20488;-72
2023/12/03 02:31:27;;;;;;;52.83;21.40;;;;;;;-1.18;100.00;101686.66;5007110;28;20057;-71
2023/12/03 02:34:11;;;;;;;51.65;20.17;;;;;;;-1.23;100.00;101692.78;5008437;28;20022;-72
2023/12/03 02:36:37;;;;;;;59.25;22.50;;;;;;;-1.22;100.00;101694.47;5011590;28;20030;-72
2023/12/03 02:39:03;;;;;;;52.45;20.48;;;;;;;-1.20;100.00;101692.69;5015549;28;20095;-72
2023/12/03 02:41:28;;;;;;;56.53;21.13;;;;;;;-1.29;100.00;101693.03;5013449;28;20293;-72
2023/12/03 02:43:54;;;;;;;52.70;20.38;;;;;;;-1.33;100.00;101699.97;5011698;28;20034;-72
2023/12/03 02:46:19;;;;;;;53.38;20.55;;;;;;;-1.30;100.00;101697.31;5011064;28;20500;-72
2023/12/03 02:48:45;;;;;;;59.72;22.63;;;;;;;-1.22;100.00;101697.03;5014212;28;20714;-72
2023/12/03 02:51:10;;;;;;;54.22;20.88;;;;;;;-1.20;100.00;101703.69;5013127;28;20034;-72
2023/12/03 02:53:37;;;;;;;54.15;20.70;;;;;;;-1.12;100.00;101705.94;5012633;28;20111;-72
2023/12/03 02:56:03;;;;;;;55.78;20.95;;;;;;;-1.14;100.00;101700.09;5016731;28;20133;-72
2023/12/03 02:58:28;;;;;;;60.72;21.67;;;;;;;-1.14;100.00;101705.19;5012572;28;20042;-72
2023/12/03 03:00:53;;;;;;;50.75;20.00;;;;;;;-1.19;100.00;101712.16;5017895;28;20049;-72
2023/12/03 03:03:19;;;;;;;52.45;20.15;;;;;;;-1.21;100.00;101701.19;5008877;28;20018;-73
2023/12/03 03:05:44;;;;;;;55.38;21.52;;;;;;;-1.20;100.00;101696.06;5008002;28;20092;-73
2023/12/03 03:08:10;;;;;;;58.83;21.17;;;;;;;-1.26;100.00;101693.75;5013824;28;20084;-73
2023/12/03 03:10:36;;;;;;;56.30;20.90;;;;;;;-1.26;100.00;101695.44;5003884;28;20038;-73
2023/12/03 03:13:01;;;;;;;52.72;20.25;;;;;;;-1.17;100.00;101695.09;5000729;28;21570;-73
2023/12/03 03:15:27;;;;;;;53.67;20.30;;;;;;;-1.10;100.00;101693.97;5009957;28;20441;-73
2023/12/03 03:17:52;;;;;;;54.90;20.42;;;;;;;-1.11;100.00;101697.44;5015251;28;20029;-73
2023/12/03 03:20:21;;;;;;;52.22;20.35;;;;;;;-1.18;100.00;101690.91;5009651;28;20412;-73
2023/12/03 03:22:47;;;;;;;58.75;21.88;;;;;;;-1.16;100.00;101698.50;5011272;28;20040;-73
2023/12/03 03:25:13;;;;;;;50.58;19.17;;;;;;;-1.12;100.00;101697.50;5010923;28;20038;-74
2023/12/03 03:27:39;;;;;;;52.88;20.38;;;;;;;-1.09;100.00;101703.31;5013158;28;20041;-74
2023/12/03 03:30:06;;;;;;;50.67;20.20;;;;;;;-1.13;100.00;101706.00;5012072;28;20038;-73
2023/12/03 03:32:32;;;;;;;51.60;19.45;;;;;;;-1.04;100.00;101700.56;5003589;28;20029;-74
2023/12/03 03:34:57;;;;;;;54.35;20.15;;;;;;;-1.10;100.00;101704.16;5014514;28;20554;-74
2023/12/03 03:37:23;;;;;;;53.72;20.23;;;;;;;-1.10;100.00;101705.91;5013795;28;20032;-74
2023/12/03 03:39:48;;;;;;;49.53;18.85;;;;;;;-1.11;100.00;101701.69;5011162;28;20088;-74
2023/12/03 03:42:14;;;;;;;55.13;20.58;;;;;;;-1.12;100.00;101705.94;5011372;28;20034;-74
2023/12/03 03:44:39;;;;;;;58.17;20.23;;;;;;;-1.08;100.00;101697.31;5014851;28;20531;-74
2023/12/03 03:47:04;;;;;;;54.20;18.83;;;;;;;-1.06;100.00;101704.88;5009567;28;20503;-74
2023/12/03 03:49:30;;;;;;;47.85;19.17;;;;;;;-1.08;100.00;101706.66;5012885;28;20436;-74
2023/12/03 03:51:55;;;;;;;49.40;18.45;;;;;;;-1.05;100.00;101707.38;5015850;28;20022;-73
2023/12/03 03:54:21;;;;;;;53.22;19.42;;;;;;;-1.08;100.00;101707.47;5012400;28;20029;-74
2023/12/03 03:56:49;;;;;;;51.70;19.27;;;;;;;-1.06;100.00;101705.72;5012549;28;20566;-74
2023/12/03 03:59:15;;;;;;;53.90;20.42;;;;;;;-1.03;100.00;101704.78;5014696;28;20061;-74
2023/12/03 04:01:44;;;;;;;49.60;19.85;;;;;;;-0.89;100.00;101711.88;4995830;28;20041;-73
2023/12/03 04:04:11;;;;;;;46.88;17.55;;;;;;;-0.86;100.00;101711.75;5010321;28;20450;-74
2023/12/03 04:06:40;;;;;;;51.85;20.02;;;;;;;-0.87;100.00;101710.91;5004709;28;20041;-74
2023/12/03 04:09:09;;;;;;;53.00;19.35;;;;;;;-0.88;100.00;101718.63;5017815;28;20025;-74
2023/12/03 04:11:41;;;;;;;45.33;18.17;;;;;;;-0.89;100.00;101719.50;5014398;28;20034;-73
2023/12/03 04:14:08;;;;;;;46.55;18.58;;;;;;;-0.87;100.00;101715.19;5011262;28;20542;-73
2023/12/03 04:16:36;;;;;;;53.55;18.45;;;;;;;-0.88;100.00;101714.38;5018642;28;20115;-73
2023/12/03 04:19:02;;;;;;;50.80;19.45;;;;;;;-0.84;100.00;101713.34;5011417;28;20029;-74
2023/12/03 04:21:29;;;;;;;49.90;19.33;;;;;;;-0.86;100.00;101716.84;5012913;28;20042;-74
2023/12/03 04:23:54;;;;;;;47.20;18.50;;;;;;;-0.91;100.00;101714.47;5016379;28;20034;-74
2023/12/03 04:26:20;;;;;;;47.80;17.65;;;;;;;-0.92;100.00;101720.47;5007075;28;20528;-74
2023/12/03 04:28:45;;;;;;;44.55;17.60;;;;;;;-0.92;100.00;101719.63;5013244;28;20038;-74
2023/12/03 04:31:29;;;;;;;48.67;18.30;;;;;;;-0.92;100.00;101722.16;5012881;28;20037;-73
2023/12/03 04:33:56;;;;;;;46.90;18.42;;;;;;;-0.79;100.00;101716.56;5008387;28;20400;-74
2023/12/03 04:36:23;;;;;;;49.22;19.10;;;;;;;-0.82;100.00;101711.56;5005728;28;20065;-74
2023/12/03 04:38:52;;;;;;;44.65;17.02;;;;;;;-0.80;100.00;101711.53;5009278;28;20037;-73
2023/12/03 04:41:17;;;;;;;44.65;17.02;;;;;;;-0.79;100.00;101713.19;5011383;28;20037;-73
2023/12/03 04:43:43;;;;;;;47.90;16.00;;;;;;;-0.81;100.00;101718.34;5009699;28;20034;-74
2023/12/03 04:46:08;;;;;;;46.65;16.92;;;;;;;-0.81;100.00;101712.41;5007901;28;20056;-74
2023/12/03 04:48:34;;;;;;;47.28;16.90;;;;;;;-0.74;100.00;101718.91;5008809;28;20040;-75
2023/12/03 04:51:00;;;;;;;44.90;16.60;;;;;;;-0.74;100.00;101718.91;5006217;28;20046;-73
2023/12/03 04:53:26;;;;;;;44.42;18.00;;;;;;;-0.76;100.00;101719.88;5010631;28;20021;-74
2023/12/03 04:55:51;;;;;;;41.17;15.75;;;;;;;-0.80;100.00;101721.72;5010860;28;20053;-73
2023/12/03 04:58:17;;;;;;;47.00;17.45;;;;;;;-0.79;100.00;101729.28;4997321;28;20062;-73
2023/12/03 05:00:42;;;;;;;41.42;17.13;;;;;;;-0.76;100.00;101725.78;5012361;28;20034;-73
2023/12/03 05:03:08;;;;;;;40.08;16.00;;;;;;;-0.69;100.00;101732.31;5016631;28;20053;-73
2023/12/03 05:05:33;;;;;;;45.22;16.98;;;;;;;-0.71;100.00;101731.53;5021144;28;20042;-73
2023/12/03 05:07:59;;;;;;;48.28;16.58;;;;;;;-0.68;100.00;101733.13;5019599;28;20037;-73
2023/12/03 05:10:24;;;;;;;50.05;17.60;;;;;;;-0.69;100.00;101728.94;5013319;28;20087;-74
2023/12/03 05:12:49;;;;;;;48.78;16.55;;;;;;;-0.61;100.00;101739.66;5014431;28;20034;-74
2023/12/03 05:15:15;;;;;;;39.83;16.52;;;;;;;-0.63;100.00;101733.78;5010346;28;20042;-73
2023/12/03 05:17:40;;;;;;;39.83;16.02;;;;;;;-0.59;100.00;101730.22;5012639;28;20049;-74
2023/12/03 05:20:07;;;;;;;42.72;16.00;;;;;;;-0.58;100.00;101736.97;5010696;28;20042;-74
2023/12/03 05:22:33;;;;;;;38.08;16.27;;;;;;;-0.62;100.00;101735.44;5009379;28;20147;-73
2023/12/03 05:24:58;;;;;;;41.53;16.17;;;;;;;-0.61;100.00;101732.00;5014630;28;20042;-73
2023/12/03 05:27:23;;;;;;;37.80;16.27;;;;;;;-0.66;100.00;101744.09;5013680;28;20034;-74
2023/12/03 05:29:49;;;;;;;44.58;16.40;;;;;;;-0.72;100.00;101742.59;5011321;28;20088;-74
2023/12/03 05:32:14;;;;;;;45.22;16.02;;;;;;;-0.57;100.00;101745.44;5013611;28;20064;-74
2023/12/03 05:34:44;;;;;;;46.47;17.27;;;;;;;-0.60;100.00;101746.41;5007364;28;20041;-74
2023/12/03 05:37:09;;;;;;;48.33;18.10;;;;;;;-0.59;100.00;101742.97;5032727;28;20037;-74
2023/12/03 05:39:37;;;;;;;47.58;15.98;;;;;;;-0.60;100.00;101749.78;5012615;28;20025;-74
2023/12/03 05:42:03;;;;;;;43.47;16.77;;;;;;;-0.50;100.00;101749.41;5016072;28;20041;-73
2023/12/03 05:44:28;;;;;;;41.38;16.73;;;;;;;-0.61;100.00;101743.00;5007628;28;20056;-73
2023/12/03 05:46:54;;;;;;;41.75;15.82;;;;;;;-0.64;100.00;101743.16;5011896;28;20051;-74
2023/12/03 05:49:19;;;;;;;48.72;17.52;;;;;;;-0.66;100.00;101746.63;5017275;28;20034;-73
2023/12/03 05:51:45;;;;;;;43.00;16.73;;;;;;;-0.72;100.00;101749.41;5021367;28;20030;-73
2023/12/03 05:54:10;;;;;;;48.92;19.58;;;;;;;-0.70;100.00;101750.19;5001539;28;20033;-73
2023/12/03 05:56:36;;;;;;;51.22;19.35;;;;;;;-0.72;100.00;101759.63;5013244;28;20064;-73
2023/12/03 05:59:01;;;;;;;44.10;17.73;;;;;;;-0.74;100.00;101763.94;5013184;28;20065;-73
2023/12/03 06:01:26;;;;;;;46.95;19.55;;;;;;;-0.80;100.00;101767.56;5013930;28;20050;-74
2023/12/03 06:03:52;;;;;;;78.32;28.55;;;;;;;-0.75;100.00;101763.13;5014786;28;20022;-73
2023/12/03 06:06:18;;;;;;;61.97;20.65;;;;;;;-0.65;100.00;101769.50;5012595;28;20034;-73
2023/12/03 06:08:44;;;;;;;77.30;28.38;;;;;;;-0.75;100.00;101772.47;5010466;28;20043;-73
2023/12/03 06:11:10;;;;;;;68.03;27.52;;;;;;;-0.83;100.00;101777.84;5013302;28;20489;-73
2023/12/03 06:13:35;;;;;;;54.72;20.63;;;;;;;-0.91;100.00;101779.88;5019364;28;20076;-74
2023/12/03 06:16:01;;;;;;;51.63;19.42;;;;;;;-0.95;100.00;101778.31;5005519;28;20033;-73
2023/12/03 06:18:26;;;;;;;54.90;22.08;;;;;;;-0.96;100.00;101774.97;5013606;28;20041;-74
2023/12/03 06:20:52;;;;;;;50.47;19.77;;;;;;;-1.03;100.00;101778.63;5008808;28;20069;-73
2023/12/03 06:23:17;;;;;;;45.63;17.55;;;;;;;-1.01;100.00;101784.47;5011856;28;20033;-74
2023/12/03 06:25:43;;;;;;;40.53;17.15;;;;;;;-1.06;100.00;101789.72;5011953;28;20045;-73
2023/12/03 06:28:09;;;;;;;41.45;16.48;;;;;;;-1.15;100.00;101797.69;5011162;28;20037;-73
2023/12/03 06:30:36;;;;;;;42.63;18.58;;;;;;;-1.20;100.00;101802.16;5006491;28;20034;-74
2023/12/03 06:33:01;;;;;;;42.30;16.90;;;;;;;-1.15;100.00;101791.78;4991592;28;20105;-73
2023/12/03 06:35:27;;;;;;;43.47;16.70;;;;;;;-1.16;100.00;101801.16;5007812;28;20035;-73
2023/12/03 06:37:52;;;;;;;47.10;16.25;;;;;;;-1.13;100.00;101795.09;5012733;28;20038;-75
2023/12/03 06:40:18;;;;;;;44.65;17.60;;;;;;;-1.09;100.00;101797.50;5008622;28;20033;-74
2023/12/03 06:42:43;;;;;;;43.75;16.77;;;;;;;-1.22;100.00;101797.09;5011388;28;20033;-73
2023/12/03 06:45:11;;;;;;;37.63;16.23;;;;;;;-1.23;100.00;101799.69;5015452;28;20057;-73
2023/12/03 06:47:37;;;;;;;41.05;16.85;;;;;;;-1.26;100.00;101802.34;5008195;28;20029;-73
2023/12/03 06:50:02;;;;;;;42.63;17.05;;;;;;;-1.19;100.00;101804.66;5012292;28;20048;-74
2023/12/03 06:52:28;;;;;;;43.78;16.77;;;;;;;-1.24;100.00;101800.59;5015411;28;20106;-74
2023/12/03 06:54:53;;;;;;;46.97;17.10;;;;;;;-1.35;100.00;101793.34;5008306;28;20050;-74
2023/12/03 06:57:19;;;;;;;45.00;16.88;;;;;;;-1.39;100.00;101799.44;4993090;28;20034;-73
2023/12/03 06:59:44;;;;;;;38.25;16.00;;;;;;;-1.40;100.00;101805.41;5008344;28;20496;-73
2023/12/03 07:02:11;;;;;;;42.55;16.02;;;;;;;-1.45;100.00;101805.56;5008347;28;20790;-73
2023/12/03 07:04:37;;;;;;;41.80;17.58;;;;;;;-1.42;100.00;101809.72;5010654;28;20036;-73
2023/12/03 07:07:03;;;;;;;45.20;17.45;;;;;;;-1.51;100.00;101815.94;5009327;28;20042;-75
2023/12/03 07:09:28;;;;;;;44.38;17.05;;;;;;;-1.51;100.00;101810.84;5006235;28;20065;-74
2023/12/03 07:11:54;;;;;;;43.30;15.15;;;;;;;-1.52;100.00;101813.47;5013538;28;20514;-73
2023/12/03 07:14:19;;;;;;;42.95;15.48;;;;;;;-1.42;100.00;101819.88;5011942;28;20022;-73
2023/12/03 07:16:45;;;;;;;40.20;14.48;;;;;;;-1.38;100.00;101812.06;5013660;28;20839;-74
2023/12/03 07:19:10;;;;;;;39.13;15.63;;;;;;;-1.45;100.00;101810.66;5014063;28;20481;-73
2023/12/03 07:21:35;;;;;;;40.25;14.77;;;;;;;-1.29;100.00;101813.47;5006979;28;20401;-74
2023/12/03 07:24:01;;;;;;;42.03;15.48;;;;;;;-1.35;100.00;101813.69;4996313;28;20030;-74
2023/12/03 07:26:26;;;;;;;38.95;15.02;;;;;;;-1.42;100.00;101820.72;5012799;28;20108;-73
2023/12/03 07:28:52;;;;;;;42.80;16.67;;;;;;;-1.34;100.00;101811.97;5011999;28;20033;-73
2023/12/03 07:31:18;;;;;;;43.22;17.15;;;;;;;-1.33;100.00;101808.56;5013401;28;20038;-72
2023/12/03 07:33:43;;;;;;;46.22;17.23;;;;;;;-1.41;100.00;101813.94;5014586;28;20041;-73
2023/12/03 07:36:10;;;;;;;44.92;17.63;;;;;;;-1.44;100.00;101814.03;5011425;28;20042;-74
2023/12/03 07:38:35;;;;;;;42.33;17.10;;;;;;;-1.53;100.00;101812.63;5013228;28;20083;-73
2023/12/03 07:41:01;;;;;;;44.15;16.95;;;;;;;-1.56;100.00;101822.91;5011581;28;20485;-72
2023/12/03 07:43:26;;;;;;;43.03;16.25;;;;;;;-1.54;100.00;101821.16;5007097;28;20026;-73
2023/12/03 07:45:52;;;;;;;46.25;19.13;;;;;;;-1.49;100.00;101823.53;5011791;28;20102;-73
2023/12/03 07:48:17;;;;;;;40.60;16.23;;;;;;;-1.54;100.00;101820.28;5013113;28;20061;-73
2023/12/03 07:50:43;;;;;;;46.60;17.75;;;;;;;-1.55;100.00;101826.28;5010648;28;20045;-72
2023/12/03 07:53:10;;;;;;;36.95;16.27;;;;;;;-1.57;100.00;101823.78;4994791;28;20038;-73
2023/12/03 07:55:36;;;;;;;37.00;16.45;;;;;;;-1.52;100.00;101833.81;5004390;28;20037;-72
2023/12/03 07:58:01;;;;;;;42.85;17.25;;;;;;;-1.53;100.00;101837.25;5011359;28;20038;-73
2023/12/03 08:00:27;;;;;;;41.13;15.43;;;;;;;-1.50;100.00;101840.50;5009891;28;20046;-73
2023/12/03 08:02:52;;;;;;;45.60;17.67;;;;;;;-1.41;100.00;101836.84;5010759;28;20045;-72
2023/12/03 08:05:18;;;;;;;43.22;16.98;;;;;;;-1.47;100.00;101845.50;5008050;28;20038;-73
2023/12/03 08:07:43;;;;;;;48.10;17.52;;;;;;;-1.31;100.00;101842.41;5009160;28;20038;-73
2023/12/03 08:10:09;;;;;;;45.85;17.83;;;;;;;-1.30;100.00;101849.16;5011838;28;20037;-73
2023/12/03 08:12:34;;;;;;;39.28;16.58;;;;;;;-1.33;100.00;101844.19;5012991;28;20038;-74
2023/12/03 08:15:00;;;;;;;40.08;17.90;;;;;;;-1.34;100.00;101845.06;5004382;28;20030;-73
2023/12/03 08:17:25;;;;;;;42.58;17.10;;;;;;;-1.16;100.00;101843.59;4995467;28;20128;-73
2023/12/03 08:19:51;;;;;;;41.50;16.90;;;;;;;-1.28;100.00;101842.28;5011985;28;20053;-72
2023/12/03 08:22:16;;;;;;;39.70;16.77;;;;;;;-1.18;100.00;101841.09;5006576;28;20030;-73
2023/12/03 08:24:42;;;;;;;47.10;18.33;;;;;;;-0.93;100.00;101840.22;5010431;28;20048;-73
2023/12/03 08:27:07;;;;;;;43.22;16.45;;;;;;;-0.89;100.00;101845.13;5011630;28;20397;-73
2023/12/03 08:29:33;;;;;;;43.10;17.38;;;;;;;-0.83;100.00;101844.06;5008604;28;20025;-73
2023/12/03 08:31:58;;;;;;;43.22;17.52;;;;;;;-0.86;100.00;101844.19;5016905;28;20044;-73
2023/12/03 08:34:24;;;;;;;42.60;16.50;;;;;;;-0.86;100.00;101846.75;5016800;28;20085;-73
2023/12/03 08:36:49;;;;;;;41.67;15.48;;;;;;;-0.86;100.00;101844.19;5016404;28;20041;-73
2023/12/03 08:39:15;;;;;;;43.10;16.92;;;;;;;-0.71;100.00;101845.34;5012111;28;20091;-73
2023/12/03 08:41:41;;;;;;;35.72;14.70;;;;;;;-0.61;100.00;101844.94;5011821;28;20169;-72
2023/12/03 08:44:06;;;;;;;38.25;14.35;;;;;;;-0.50;100.00;101847.06;5012919;28;20034;-72
2023/12/03 08:46:32;;;;;;;36.00;14.70;;;;;;;-0.47;100.00;101841.00;5016413;28;20049;-73
2023/12/03 08:48:57;;;;;;;35.60;15.02;;;;;;;-0.32;100.00;101845.53;5013270;28;20037;-73
2023/12/03 08:51:23;;;;;;;38.53;16.23;;;;;;;-0.22;100.00;101849.38;5017975;28;20420;-73
2023/12/03 08:53:48;;;;;;;42.70;16.02;;;;;;;-0.21;100.00;101842.56;5012465;28;20034;-73
2023/12/03 08:56:14;;;;;;;37.67;14.80;;;;;;;-0.09;100.00;101843.81;5011188;28;20038;-73
2023/12/03 08:58:40;;;;;;;39.38;16.60;;;;;;;-0.07;100.00;101850.50;5009928;28;20038;-73
2023/12/03 09:01:07;;;;;;;38.42;16.13;;;;;;;-0.06;100.00;101846.22;5013912;28;20040;-73
2023/12/03 09:03:33;;;;;;;39.30;16.38;;;;;;;-0.07;100.00;101849.66;5010678;28;20029;-73
2023/12/03 09:05:59;;;;;;;53.30;21.08;;;;;;;-0.03;100.00;101846.91;5014000;28;20034;-73
2023/12/03 09:08:24;;;;;;;41.97;15.98;;;;;;;0.13;99.82;101839.50;5015646;28;20041;-72
2023/12/03 09:10:50;;;;;;;32.67;15.25;;;;;;;0.10;99.18;101849.00;4997278;28;20037;-73
2023/12/03 09:13:15;;;;;;;48.38;20.25;;;;;;;0.03;99.42;101840.75;5017026;28;20033;-73
2023/12/03 09:15:40;;;;;;;34.63;14.75;;;;;;;0.17;99.06;101852.94;5017106;28;20037;-72
2023/12/03 09:18:06;;;;;;;36.28;15.27;;;;;;;0.28;98.33;101860.16;5019139;28;20404;-73
2023/12/03 09:20:32;;;;;;;38.80;16.00;;;;;;;0.19;98.59;101843.50;5006843;28;20034;-73
2023/12/03 09:22:57;;;;;;;33.95;14.40;;;;;;;0.33;97.62;101855.69;5012940;28;20104;-73
2023/12/03 09:25:23;;;;;;;35.03;13.52;;;;;;;0.39;96.79;101855.41;5011516;28;20504;-74
2023/12/03 09:27:49;;;;;;;44.05;16.98;;;;;;;0.34;96.75;101857.34;5010878;28;20030;-73
2023/12/03 09:30:14;;;;;;;40.55;15.80;;;;;;;0.34;96.77;101860.72;4994157;28;20038;-73
2023/12/03 09:32:40;;;;;;;31.30;13.07;;;;;;;0.51;95.93;101861.72;5020397;28;20022;-73
2023/12/03 09:35:06;;;;;;;39.50;15.88;;;;;;;0.58;95.17;101855.47;5012534;28;20084;-74
2023/12/03 09:37:31;;;;;;;33.35;14.13;;;;;;;0.53;95.22;101857.41;5017532;28;20029;-73
2023/12/03 09:39:57;;;;;;;31.60;14.35;;;;;;;0.51;95.08;101860.03;5008790;28;20530;-73
2023/12/03 09:42:26;;;;;;;34.67;15.05;;;;;;;0.53;94.63;101862.53;5019457;28;20048;-74
2023/12/03 09:45:04;;;;;;;37.28;14.80;;;;;;;0.60;92.53;101868.19;5005358;28;20070;-73
2023/12/03 09:47:34;;;;;;;37.45;12.60;;;;;;;0.65;92.64;101872.19;5010680;28;20037;-73
2023/12/03 09:50:00;;;;;;;29.92;13.15;;;;;;;0.53;92.24;101870.19;5010310;28;20056;-73
2023/12/03 09:52:29;;;;;;;38.75;13.48;;;;;;;0.42;92.49;101873.16;5012943;28;20036;-73
2023/12/03 09:54:57;;;;;;;35.33;13.50;;;;;;;0.45;91.08;101873.03;5010751;28;20561;-74
2023/12/03 09:57:25;;;;;;;35.05;13.38;;;;;;;0.41;91.39;101881.72;5001046;28;20052;-74
2023/12/03 09:59:56;;;;;;;27.35;11.95;;;;;;;0.44;91.65;101879.03;5008943;28;20508;-74
2023/12/03 10:02:26;;;;;;;30.05;11.95;;;;;;;0.58;90.71;101879.31;5007666;28;20034;-74
2023/12/03 10:04:52;;;;;;;30.20;12.70;;;;;;;0.60;91.19;101883.50;5011330;28;20475;-73
2023/12/03 10:07:19;;;;;;;37.45;15.00;;;;;;;0.63;91.73;101876.53;5006952;28;20773;-74
2023/12/03 10:09:47;;;;;;;29.50;12.93;;;;;;;0.67;90.50;101887.44;5015145;28;20041;-73
2023/12/03 10:12:16;;;;;;;43.58;16.90;;;;;;;0.71;90.76;101879.59;5012315;28;20056;-73
2023/12/03 10:14:41;;;;;;;39.47;17.20;;;;;;;0.70;90.80;101875.38;5013740;28;20030;-73
2023/12/03 10:17:07;;;;;;;38.25;17.17;;;;;;;0.72;89.78;101871.03;5011931;28;20034;-73
2023/12/03 10:19:32;;;;;;;30.92;12.82;;;;;;;0.77;89.71;101873.38;5013323;28;20045;-74
2023/12/03 10:21:58;;;;;;;29.92;12.52;;;;;;;0.80;89.44;101872.44;4993299;28;20045;-74
2023/12/03 10:24:24;;;;;;;34.08;13.95;;;;;;;0.73;88.74;101869.31;5010949;28;20064;-74
2023/12/03 10:26:55;;;;;;;45.97;18.70;;;;;;;0.82;89.79;101861.25;5010412;28;20095;-74
2023/12/03 10:29:23;;;;;;;35.58;13.07;;;;;;;0.84;89.73;101859.47;5005630;28;20046;-73
2023/12/03 10:31:50;;;;;;;26.95;11.13;;;;;;;0.71;88.30;101848.94;5011274;28;20037;-73
2023/12/03 10:34:16;;;;;;;32.72;12.32;;;;;;;0.86;87.07;101846.63;5008104;28;20022;-74
2023/12/03 10:36:44;;;;;;;32.55;13.07;;;;;;;0.85;87.55;101842.41;5008623;28;20390;-73
2023/12/03 10:39:16;;;;;;;33.17;13.40;;;;;;;0.77;88.60;101842.75;5013710;28;20044;-74
2023/12/03 10:41:46;;;;;;;30.58;11.63;;;;;;;0.82;87.57;101840.00;5012595;28;20274;-73
2023/12/03 10:44:23;;;;;;;30.73;12.45;;;;;;;0.74;88.14;101835.22;5011937;28;20037;-74
2023/12/03 10:46:50;;;;;;;33.15;12.10;;;;;;;0.73;88.56;101838.66;5006234;28;20042;-74
2023/12/03 10:49:16;;;;;;;29.40;11.48;;;;;;;0.78;87.29;101829.91;5006049;28;20030;-73
2023/12/03 10:51:43;;;;;;;32.60;12.77;;;;;;;0.76;88.48;101836.81;5011955;28;20370;-74
2023/12/03 10:54:10;;;;;;;31.92;11.48;;;;;;;0.85;88.57;101825.38;5011853;28;20386;-74
2023/12/03 10:56:35;;;;;;;30.35;12.73;;;;;;;0.89;89.47;101834.56;5010635;28;20040;-74
2023/12/03 10:59:08;;;;;;;32.58;13.40;;;;;;;0.87;89.05;101831.25;5016449;28;20033;-74